sensor_id;sensor_type;location;lat;lon;timestamp;pressure;altitude;pressure_sealevel;temperature;humidity
79285;BME280;68734;50.452;11.636;2023-05-20T00:02:14;96047.13;;;9.31;83.03
79285;BME280;68734;50.452;11.636;2023-05-20T00:04:40;96038.47;;;9.29;83.20
79285;BME280;68734;50.452;11.636;2023-05-20T00:07:08;96044.19;;;9.33;83.01
79285;BME280;68734;50.452;11.636;2023-05-20T00:09:33;96049.81;;;9.31;83.13
79285;BME280;68734;50.452;11.636;2023-05-20T00:11:59;96062.13;;;9.27;83.48
79285;BME280;68734;50.452;11.636;2023-05-20T00:14:24;96048.59;;;9.22;83.41
79285;BME280;68734;50.452;11.636;2023-05-20T00:16:49;96053.63;;;9.18;83.69
79285;BME280;68734;50.452;11.636;2023-05-20T00:19:15;96051.16;;;9.17;83.70
79285;BME280;68734;50.452;11.636;2023-05-20T00:21:41;96045.88;;;9.22;83.70
79285;BME280;68734;50.452;11.636;2023-05-20T00:24:06;96051.03;;;9.12;83.93
79285;BME280;68734;50.452;11.636;2023-05-20T00:26:31;96051.03;;;9.12;84.03
79285;BME280;68734;50.452;11.636;2023-05-20T00:28:57;96047.41;;;9.18;83.74
79285;BME280;68734;50.452;11.636;2023-05-20T00:31:22;96040.38;;;9.17;83.67
79285;BME280;68734;50.452;11.636;2023-05-20T00:33:48;96031.59;;;9.10;84.03
79285;BME280;68734;50.452;11.636;2023-05-20T00:36:13;96038.66;;;9.11;83.87
79285;BME280;68734;50.452;11.636;2023-05-20T00:38:39;96041.00;;;9.07;84.23
79285;BME280;68734;50.452;11.636;2023-05-20T00:41:07;96044.75;;;9.06;84.23
79285;BME280;68734;50.452;11.636;2023-05-20T00:43:32;96046.03;;;9.04;84.09
79285;BME280;68734;50.452;11.636;2023-05-20T00:45:57;96045.38;;;8.96;84.33
79285;BME280;68734;50.452;11.636;2023-05-20T00:48:23;96053.53;;;9.02;84.36
79285;BME280;68734;50.452;11.636;2023-05-20T00:50:49;96050.47;;;9.10;83.85
79285;BME280;68734;50.452;11.636;2023-05-20T00:53:17;96053.75;;;9.12;84.05
79285;BME280;68734;50.452;11.636;2023-05-20T00:55:44;96052.47;;;9.14;83.78
79285;BME280;68734;50.452;11.636;2023-05-20T00:58:10;96050.47;;;9.10;84.12
79285;BME280;68734;50.452;11.636;2023-05-20T01:00:35;96054.59;;;9.12;84.09
79285;BME280;68734;50.452;11.636;2023-05-20T01:03:01;96048.94;;;9.14;83.72
79285;BME280;68734;50.452;11.636;2023-05-20T01:05:27;96057.38;;;9.17;83.81
79285;BME280;68734;50.452;11.636;2023-05-20T01:07:52;96053.75;;;9.12;84.15
79285;BME280;68734;50.452;11.636;2023-05-20T01:10:18;96046.63;;;9.06;84.29
79285;BME280;68734;50.452;11.636;2023-05-20T01:12:51;96049.31;;;9.06;84.28
79285;BME280;68734;50.452;11.636;2023-05-20T01:15:19;96050.25;;;8.99;84.49
79285;BME280;68734;50.452;11.636;2023-05-20T01:17:51;96056.72;;;8.98;84.62
79285;BME280;68734;50.452;11.636;2023-05-20T01:20:22;96048.66;;;8.98;84.72
79285;BME280;68734;50.452;11.636;2023-05-20T01:22:49;96044.53;;;8.96;84.88
79285;BME280;68734;50.452;11.636;2023-05-20T01:25:16;96043.03;;;9.00;84.61
79285;BME280;68734;50.452;11.636;2023-05-20T01:27:42;96046.53;;;9.01;84.54
79285;BME280;68734;50.452;11.636;2023-05-20T01:30:09;96035.88;;;8.94;84.79
79285;BME280;68734;50.452;11.636;2023-05-20T01:32:38;96040.78;;;8.97;84.85
79285;BME280;68734;50.452;11.636;2023-05-20T01:35:06;96040.09;;;8.90;85.06
79285;BME280;68734;50.452;11.636;2023-05-20T01:37:34;96026.41;;;8.91;84.92
79285;BME280;68734;50.452;11.636;2023-05-20T01:40:04;96030.63;;;8.87;85.35
79285;BME280;68734;50.452;11.636;2023-05-20T01:42:31;96021.97;;;8.85;85.38
79285;BME280;68734;50.452;11.636;2023-05-20T01:44:58;96017.06;;;8.82;85.44
79285;BME280;68734;50.452;11.636;2023-05-20T01:47:26;96012.72;;;8.81;85.48
79285;BME280;68734;50.452;11.636;2023-05-20T01:49:51;96008.28;;;8.75;85.71
79285;BME280;68734;50.452;11.636;2023-05-20T01:52:20;96021.28;;;8.78;85.83
79285;BME280;68734;50.452;11.636;2023-05-20T01:54:46;96013.78;;;8.80;85.79
79285;BME280;68734;50.452;11.636;2023-05-20T01:57:18;96012.13;;;8.79;85.72
79285;BME280;68734;50.452;11.636;2023-05-20T01:59:47;96020.81;;;8.81;85.77
79285;BME280;68734;50.452;11.636;2023-05-20T02:02:13;96011.56;;;8.77;85.68
79285;BME280;68734;50.452;11.636;2023-05-20T02:04:39;96020.72;;;8.76;85.70
79285;BME280;68734;50.452;11.636;2023-05-20T02:07:06;96017.53;;;8.79;85.61
79285;BME280;68734;50.452;11.636;2023-05-20T02:09:33;96015.91;;;8.78;85.94
79285;BME280;68734;50.452;11.636;2023-05-20T02:11:59;96004.88;;;8.79;85.42
79285;BME280;68734;50.452;11.636;2023-05-20T02:14:24;96008.16;;;8.70;86.05
79285;BME280;68734;50.452;11.636;2023-05-20T02:16:50;96004.56;;;8.64;86.54
79285;BME280;68734;50.452;11.636;2023-05-20T02:19:15;96001.53;;;8.61;86.58
79285;BME280;68734;50.452;11.636;2023-05-20T02:21:47;96002.56;;;8.59;86.68
79285;BME280;68734;50.452;11.636;2023-05-20T02:24:13;96000.16;;;8.46;87.16
79285;BME280;68734;50.452;11.636;2023-05-20T02:26:38;95984.34;;;8.38;87.68
79285;BME280;68734;50.452;11.636;2023-05-20T02:29:04;96001.06;;;8.40;87.39
79285;BME280;68734;50.452;11.636;2023-05-20T02:31:29;95997.91;;;8.43;87.43
79285;BME280;68734;50.452;11.636;2023-05-20T02:33:55;96000.47;;;8.38;87.51
79285;BME280;68734;50.452;11.636;2023-05-20T02:36:20;96009.94;;;8.41;87.71
79285;BME280;68734;50.452;11.636;2023-05-20T02:38:47;96004.22;;;8.37;87.92
79285;BME280;68734;50.452;11.636;2023-05-20T02:41:15;96002.59;;;8.36;87.68
79285;BME280;68734;50.452;11.636;2023-05-20T02:43:40;95995.69;;;8.28;88.39
79285;BME280;68734;50.452;11.636;2023-05-20T02:46:08;95997.44;;;8.23;88.44
79285;BME280;68734;50.452;11.636;2023-05-20T02:48:33;95985.28;;;8.20;88.50
79285;BME280;68734;50.452;11.636;2023-05-20T02:50:59;95999.41;;;8.15;88.81
79285;BME280;68734;50.452;11.636;2023-05-20T02:53:25;95987.63;;;8.16;89.18
79285;BME280;68734;50.452;11.636;2023-05-20T02:55:50;95988.66;;;8.15;88.75
79285;BME280;68734;50.452;11.636;2023-05-20T02:58:16;95994.75;;;8.11;89.06
79285;BME280;68734;50.452;11.636;2023-05-20T03:00:44;96002.00;;;8.10;89.32
79285;BME280;68734;50.452;11.636;2023-05-20T03:03:09;95987.75;;;8.10;89.22
79285;BME280;68734;50.452;11.636;2023-05-20T03:05:35;95985.50;;;8.07;89.37
79285;BME280;68734;50.452;11.636;2023-05-20T03:08:12;95993.34;;;8.08;89.32
79285;BME280;68734;50.452;11.636;2023-05-20T03:10:40;95985.28;;;8.08;89.22
79285;BME280;68734;50.452;11.636;2023-05-20T03:13:06;95976.63;;;8.06;89.34
79285;BME280;68734;50.452;11.636;2023-05-20T03:15:36;95979.91;;;8.08;89.25
79285;BME280;68734;50.452;11.636;2023-05-20T03:18:02;95981.53;;;8.09;89.48
79285;BME280;68734;50.452;11.636;2023-05-20T03:20:29;95965.97;;;7.99;89.49
79285;BME280;68734;50.452;11.636;2023-05-20T03:22:54;95969.81;;;8.04;89.61
79285;BME280;68734;50.452;11.636;2023-05-20T03:25:21;95979.91;;;8.08;89.58
79285;BME280;68734;50.452;11.636;2023-05-20T03:27:46;95991.13;;;8.05;89.70
79285;BME280;68734;50.452;11.636;2023-05-20T03:30:12;95987.16;;;7.96;90.06
79285;BME280;68734;50.452;11.636;2023-05-20T03:32:41;95970.06;;;7.90;89.88
79285;BME280;68734;50.452;11.636;2023-05-20T03:35:07;95987.38;;;7.94;90.09
79285;BME280;68734;50.452;11.636;2023-05-20T03:37:33;95989.00;;;7.84;90.47
79285;BME280;68734;50.452;11.636;2023-05-20T03:39:59;95991.09;;;7.93;90.25
79285;BME280;68734;50.452;11.636;2023-05-20T03:42:24;95993.78;;;7.93;90.21
79285;BME280;68734;50.452;11.636;2023-05-20T03:44:50;95993.78;;;7.93;90.47
79285;BME280;68734;50.452;11.636;2023-05-20T03:47:15;95993.56;;;7.95;90.25
79285;BME280;68734;50.452;11.636;2023-05-20T03:49:41;95993.13;;;7.98;90.16
79285;BME280;68734;50.452;11.636;2023-05-20T03:52:06;96007.59;;;7.97;90.28
79285;BME280;68734;50.452;11.636;2023-05-20T03:54:32;96010.78;;;7.94;90.63
79285;BME280;68734;50.452;11.636;2023-05-20T03:56:59;96018.94;;;7.99;90.56
79285;BME280;68734;50.452;11.636;2023-05-20T03:59:25;96007.75;;;8.02;90.18
79285;BME280;68734;50.452;11.636;2023-05-20T04:01:51;96016.03;;;8.01;90.39
79285;BME280;68734;50.452;11.636;2023-05-20T04:04:17;96013.94;;;8.03;90.50
79285;BME280;68734;50.452;11.636;2023-05-20T04:06:42;96003.53;;;8.06;90.21
79285;BME280;68734;50.452;11.636;2023-05-20T04:09:08;96004.22;;;8.13;89.81
79285;BME280;68734;50.452;11.636;2023-05-20T04:11:33;96007.38;;;8.10;90.09
79285;BME280;68734;50.452;11.636;2023-05-20T04:13:59;96000.94;;;8.11;89.97
79285;BME280;68734;50.452;11.636;2023-05-20T04:16:27;96001.88;;;8.05;89.92
79285;BME280;68734;50.452;11.636;2023-05-20T04:18:54;96004.22;;;8.13;90.12
79285;BME280;68734;50.452;11.636;2023-05-20T04:21:19;96009.00;;;8.11;89.99
79285;BME280;68734;50.452;11.636;2023-05-20T04:23:45;96010.19;;;8.15;90.02
79285;BME280;68734;50.452;11.636;2023-05-20T04:26:10;96005.38;;;8.17;89.87
79285;BME280;68734;50.452;11.636;2023-05-20T04:28:37;96004.69;;;8.10;89.99
79285;BME280;68734;50.452;11.636;2023-05-20T04:31:03;96009.34;;;8.03;90.57
79285;BME280;68734;50.452;11.636;2023-05-20T04:33:31;96007.03;;;8.07;90.54
79285;BME280;68734;50.452;11.636;2023-05-20T04:36:00;96004.69;;;8.10;90.34
79285;BME280;68734;50.452;11.636;2023-05-20T04:38:27;96019.91;;;8.16;90.10
79285;BME280;68734;50.452;11.636;2023-05-20T04:40:58;96001.28;;;8.15;89.81
79285;BME280;68734;50.452;11.636;2023-05-20T04:43:24;95998.84;;;8.13;90.12
79285;BME280;68734;50.452;11.636;2023-05-20T04:45:51;96003.75;;;8.16;89.87
79285;BME280;68734;50.452;11.636;2023-05-20T04:48:19;96003.84;;;8.22;89.61
79285;BME280;68734;50.452;11.636;2023-05-20T04:50:44;96006.44;;;8.28;89.58
79285;BME280;68734;50.452;11.636;2023-05-20T04:53:10;96009.72;;;8.30;89.45
79285;BME280;68734;50.452;11.636;2023-05-20T04:55:35;96008.88;;;8.30;89.44
79285;BME280;68734;50.452;11.636;2023-05-20T04:58:04;96002.47;;;8.31;89.47
79285;BME280;68734;50.452;11.636;2023-05-20T05:00:32;96013.81;;;8.33;89.45
79285;BME280;68734;50.452;11.636;2023-05-20T05:02:58;96013.81;;;8.33;89.51
79285;BME280;68734;50.452;11.636;2023-05-20T05:05:25;96004.22;;;8.37;89.27
79285;BME280;68734;50.452;11.636;2023-05-20T05:07:50;96010.09;;;8.34;89.47
79285;BME280;68734;50.452;11.636;2023-05-20T05:10:18;96005.16;;;8.31;89.34
79285;BME280;68734;50.452;11.636;2023-05-20T05:12:43;96002.69;;;8.29;89.42
79285;BME280;68734;50.452;11.636;2023-05-20T05:15:09;96002.81;;;8.23;89.78
79285;BME280;68734;50.452;11.636;2023-05-20T05:17:35;95992.63;;;8.25;89.96
79285;BME280;68734;50.452;11.636;2023-05-20T05:20:00;95992.50;;;8.19;90.00
79285;BME280;68734;50.452;11.636;2023-05-20T05:22:26;95989.25;;;8.17;90.00
79285;BME280;68734;50.452;11.636;2023-05-20T05:24:51;95996.50;;;8.29;89.85
79285;BME280;68734;50.452;11.636;2023-05-20T05:27:17;95990.66;;;8.32;89.67
79285;BME280;68734;50.452;11.636;2023-05-20T05:29:44;95985.97;;;8.39;89.23
79285;BME280;68734;50.452;11.636;2023-05-20T05:32:10;95989.97;;;8.48;89.14
79285;BME280;68734;50.452;11.636;2023-05-20T05:34:35;95992.75;;;8.53;88.51
79285;BME280;68734;50.452;11.636;2023-05-20T05:37:01;95993.91;;;8.57;88.21
79285;BME280;68734;50.452;11.636;2023-05-20T05:39:29;96004.22;;;8.61;88.50
79285;BME280;68734;50.452;11.636;2023-05-20T05:41:54;95990.28;;;8.64;88.21
79285;BME280;68734;50.452;11.636;2023-05-20T05:44:20;95985.00;;;8.69;87.93
79285;BME280;68734;50.452;11.636;2023-05-20T05:46:45;95992.16;;;8.51;88.56
79285;BME280;68734;50.452;11.636;2023-05-20T05:49:11;95994.41;;;8.54;88.66
79285;BME280;68734;50.452;11.636;2023-05-20T05:51:36;95991.34;;;8.63;88.24
79285;BME280;68734;50.452;11.636;2023-05-20T05:54:01;95986.63;;;8.70;88.17
79285;BME280;68734;50.452;11.636;2023-05-20T05:56:27;95980.16;;;8.83;87.71
79285;BME280;68734;50.452;11.636;2023-05-20T05:58:52;95996.69;;;8.86;87.78
79285;BME280;68734;50.452;11.636;2023-05-20T06:01:18;95994.75;;;8.98;86.98
79285;BME280;68734;50.452;11.636;2023-05-20T06:03:43;95996.38;;;8.99;87.12
79285;BME280;68734;50.452;11.636;2023-05-20T06:06:11;95993.00;;;9.04;86.79
79285;BME280;68734;50.452;11.636;2023-05-20T06:08:36;95991.50;;;8.96;86.86
79285;BME280;68734;50.452;11.636;2023-05-20T06:11:04;96000.53;;;8.90;87.28
79285;BME280;68734;50.452;11.636;2023-05-20T06:13:29;95989.25;;;8.93;87.15
79285;BME280;68734;50.452;11.636;2023-05-20T06:15:57;95981.28;;;8.98;87.33
79285;BME280;68734;50.452;11.636;2023-05-20T06:18:23;95983.50;;;9.02;87.01
79285;BME280;68734;50.452;11.636;2023-05-20T06:20:54;95975.69;;;9.17;86.66
79285;BME280;68734;50.452;11.636;2023-05-20T06:23:19;95992.59;;;9.12;86.75
79285;BME280;68734;50.452;11.636;2023-05-20T06:25:45;95980.50;;;9.15;86.66
79285;BME280;68734;50.452;11.636;2023-05-20T06:28:10;95973.13;;;9.22;86.64
79285;BME280;68734;50.452;11.636;2023-05-20T06:30:36;95981.28;;;9.27;86.17
79285;BME280;68734;50.452;11.636;2023-05-20T06:33:02;95980.31;;;9.33;85.83
79285;BME280;68734;50.452;11.636;2023-05-20T06:35:27;95977.97;;;9.37;85.78
79285;BME280;68734;50.452;11.636;2023-05-20T06:37:53;95981.00;;;9.41;85.88
79285;BME280;68734;50.452;11.636;2023-05-20T06:40:19;95979.44;;;9.45;85.60
79285;BME280;68734;50.452;11.636;2023-05-20T06:42:45;95984.91;;;9.50;85.54
79285;BME280;68734;50.452;11.636;2023-05-20T06:45:10;95982.38;;;9.60;85.04
79285;BME280;68734;50.452;11.636;2023-05-20T06:47:36;95987.88;;;9.65;84.77
79285;BME280;68734;50.452;11.636;2023-05-20T06:50:02;95983.06;;;9.67;84.82
79285;BME280;68734;50.452;11.636;2023-05-20T06:52:27;95973.59;;;9.65;84.52
79285;BME280;68734;50.452;11.636;2023-05-20T06:54:52;95969.97;;;9.59;84.78
79285;BME280;68734;50.452;11.636;2023-05-20T06:57:21;95977.25;;;9.58;85.11
79285;BME280;68734;50.452;11.636;2023-05-20T06:59:46;95970.78;;;9.59;84.95
79285;BME280;68734;50.452;11.636;2023-05-20T07:02:12;95965.97;;;9.62;85.12
79285;BME280;68734;50.452;11.636;2023-05-20T07:04:37;95963.38;;;9.67;84.63
79285;BME280;68734;50.452;11.636;2023-05-20T07:07:03;95961.25;;;9.69;84.59
79285;BME280;68734;50.452;11.636;2023-05-20T07:09:28;95963.78;;;9.75;84.52
79285;BME280;68734;50.452;11.636;2023-05-20T07:11:54;95962.06;;;9.86;84.41
79285;BME280;68734;50.452;11.636;2023-05-20T07:14:19;95959.69;;;9.90;84.30
79285;BME280;68734;50.452;11.636;2023-05-20T07:16:45;95954.28;;;9.90;83.95
79285;BME280;68734;50.452;11.636;2023-05-20T07:22:32;95945.66;;;10.27;82.70
79285;BME280;68734;50.452;11.636;2023-05-20T07:25:00;95949.75;;;10.29;83.03
79285;BME280;68734;50.452;11.636;2023-05-20T07:27:25;95948.28;;;10.22;83.07
79285;BME280;68734;50.452;11.636;2023-05-20T07:29:51;95944.00;;;10.26;82.71
79285;BME280;68734;50.452;11.636;2023-05-20T07:32:16;95942.63;;;10.40;82.79
79285;BME280;68734;50.452;11.636;2023-05-20T07:34:42;95944.81;;;10.43;82.17
79285;BME280;68734;50.452;11.636;2023-05-20T07:37:08;95943.19;;;10.42;82.31
79285;BME280;68734;50.452;11.636;2023-05-20T07:39:34;95951.94;;;10.49;82.11
79285;BME280;68734;50.452;11.636;2023-05-20T07:41:59;95948.53;;;10.59;80.57
79285;BME280;68734;50.452;11.636;2023-05-20T07:44:27;95949.34;;;10.60;81.08
79285;BME280;68734;50.452;11.636;2023-05-20T07:46:54;95940.81;;;10.68;80.89
79285;BME280;68734;50.452;11.636;2023-05-20T07:49:19;95937.53;;;10.66;80.70
79285;BME280;68734;50.452;11.636;2023-05-20T07:51:47;95942.47;;;10.69;80.33
79285;BME280;68734;50.452;11.636;2023-05-20T07:54:13;95940.38;;;10.76;80.44
79285;BME280;68734;50.452;11.636;2023-05-20T07:56:41;95931.78;;;10.79;80.79
79285;BME280;68734;50.452;11.636;2023-05-20T07:59:06;95952.00;;;10.54;81.35
79285;BME280;68734;50.452;11.636;2023-05-20T08:01:31;95942.91;;;10.61;81.45
79285;BME280;68734;50.452;11.636;2023-05-20T08:03:57;95943.19;;;10.42;81.84
79285;BME280;68734;50.452;11.636;2023-05-20T08:06:22;95935.03;;;10.37;82.23
79285;BME280;68734;50.452;11.636;2023-05-20T08:08:51;95939.59;;;10.19;83.07
79285;BME280;68734;50.452;11.636;2023-05-20T08:11:18;95924.50;;;10.18;83.26
79285;BME280;68734;50.452;11.636;2023-05-20T08:13:45;95939.91;;;10.40;82.59
79285;BME280;68734;50.452;11.636;2023-05-20T08:16:13;95942.69;;;10.45;82.70
79285;BME280;68734;50.452;11.636;2023-05-20T08:18:39;95938.44;;;10.49;82.54
79285;BME280;68734;50.452;11.636;2023-05-20T08:21:05;95943.47;;;10.63;82.19
79285;BME280;68734;50.452;11.636;2023-05-20T08:23:34;95937.66;;;10.76;81.85
79285;BME280;68734;50.452;11.636;2023-05-20T08:26:00;95941.25;;;10.82;81.64
79285;BME280;68734;50.452;11.636;2023-05-20T08:28:31;95938.78;;;10.80;81.56
79285;BME280;68734;50.452;11.636;2023-05-20T08:30:56;95939.47;;;10.92;81.39
79285;BME280;68734;50.452;11.636;2023-05-20T08:33:22;95955.75;;;10.97;79.78
79285;BME280;68734;50.452;11.636;2023-05-20T08:35:48;95948.78;;;11.02;80.37
79285;BME280;68734;50.452;11.636;2023-05-20T08:38:14;95937.00;;;11.13;79.27
79285;BME280;68734;50.452;11.636;2023-05-20T08:40:39;95939.56;;;11.25;78.88
79285;BME280;68734;50.452;11.636;2023-05-20T08:43:05;95930.28;;;11.43;78.98
79285;BME280;68734;50.452;11.636;2023-05-20T08:45:32;95939.34;;;11.31;78.35
79285;BME280;68734;50.452;11.636;2023-05-20T08:47:59;95939.56;;;11.25;78.36
79285;BME280;68734;50.452;11.636;2023-05-20T08:50:25;95932.28;;;11.30;78.81
79285;BME280;68734;50.452;11.636;2023-05-20T08:52:51;95933.53;;;11.45;78.46
79285;BME280;68734;50.452;11.636;2023-05-20T08:55:22;95937.78;;;11.35;79.78
79285;BME280;68734;50.452;11.636;2023-05-20T08:57:53;95928.94;;;11.18;79.71
79285;BME280;68734;50.452;11.636;2023-05-20T09:00:22;95924.25;;;11.35;79.34
79285;BME280;68734;50.452;11.636;2023-05-20T09:02:53;95931.41;;;11.47;78.85
79285;BME280;68734;50.452;11.636;2023-05-20T09:05:19;95922.41;;;11.41;79.10
79285;BME280;68734;50.452;11.636;2023-05-20T09:07:45;95927.09;;;11.51;79.25
79285;BME280;68734;50.452;11.636;2023-05-20T09:10:11;95926.56;;;11.54;79.06
79285;BME280;68734;50.452;11.636;2023-05-20T09:12:37;95924.97;;;11.58;78.61
79285;BME280;68734;50.452;11.636;2023-05-20T09:15:06;95918.50;;;11.59;79.23
79285;BME280;68734;50.452;11.636;2023-05-20T09:17:36;95921.69;;;11.83;77.92
79285;BME280;68734;50.452;11.636;2023-05-20T09:20:08;95927.78;;;11.68;78.72
79285;BME280;68734;50.452;11.636;2023-05-20T09:22:39;95909.06;;;11.94;78.02
79285;BME280;68734;50.452;11.636;2023-05-20T09:25:04;95909.66;;;12.01;77.66
79285;BME280;68734;50.452;11.636;2023-05-20T09:27:30;95910.22;;;12.08;77.37
79285;BME280;68734;50.452;11.636;2023-05-20T09:29:59;95912.38;;;12.06;77.37
79285;BME280;68734;50.452;11.636;2023-05-20T09:32:24;95909.19;;;12.14;77.18
79285;BME280;68734;50.452;11.636;2023-05-20T09:34:54;95920.06;;;12.25;77.34
79285;BME280;68734;50.452;11.636;2023-05-20T09:37:21;95908.44;;;12.24;76.81
79285;BME280;68734;50.452;11.636;2023-05-20T09:40:01;95903.41;;;12.48;75.71
79285;BME280;68734;50.452;11.636;2023-05-20T09:42:36;95911.13;;;12.77;75.50
79285;BME280;68734;50.452;11.636;2023-05-20T09:45:04;95895.38;;;12.74;75.12
79285;BME280;68734;50.452;11.636;2023-05-20T09:47:34;95892.06;;;12.51;76.23
79285;BME280;68734;50.452;11.636;2023-05-20T09:50:00;95895.97;;;12.81;75.21
79285;BME280;68734;50.452;11.636;2023-05-20T09:52:28;95897.06;;;12.90;75.18
79285;BME280;68734;50.452;11.636;2023-05-20T09:54:55;95899.78;;;13.01;74.64
79285;BME280;68734;50.452;11.636;2023-05-20T09:57:22;95890.09;;;13.15;75.09
79285;BME280;68734;50.452;11.636;2023-05-20T09:59:49;95882.97;;;12.98;74.62
79285;BME280;68734;50.452;11.636;2023-05-20T10:02:16;95890.09;;;13.25;74.14
79285;BME280;68734;50.452;11.636;2023-05-20T10:04:46;95882.56;;;13.38;73.20
79285;BME280;68734;50.452;11.636;2023-05-20T10:18:35;95883.38;;;13.48;73.29
79285;BME280;68734;50.452;11.636;2023-05-20T10:21:17;95878.78;;;13.59;72.89
79285;BME280;68734;50.452;11.636;2023-05-20T10:23:43;95871.97;;;13.51;72.32
79285;BME280;68734;50.452;11.636;2023-05-20T10:26:09;95879.81;;;13.27;73.37
79285;BME280;68734;50.452;11.636;2023-05-20T10:28:36;95867.88;;;13.23;73.66
79285;BME280;68734;50.452;11.636;2023-05-20T10:31:13;95877.34;;;13.26;72.76
79285;BME280;68734;50.452;11.636;2023-05-20T10:33:43;95877.06;;;13.22;73.47
79285;BME280;68734;50.452;11.636;2023-05-20T10:36:09;95871.97;;;13.36;73.56
79285;BME280;68734;50.452;11.636;2023-05-20T10:38:34;95867.88;;;13.39;73.23
79285;BME280;68734;50.452;11.636;2023-05-20T10:41:09;95863.28;;;13.70;72.74
79285;BME280;68734;50.452;11.636;2023-05-20T10:44:05;95869.78;;;13.74;72.42
79285;BME280;68734;50.452;11.636;2023-05-20T10:46:32;95870.03;;;14.03;72.12
79285;BME280;68734;50.452;11.636;2023-05-20T10:48:57;95867.28;;;14.24;70.68
79285;BME280;68734;50.452;11.636;2023-05-20T10:51:24;95869.38;;;14.42;70.34
79285;BME280;68734;50.452;11.636;2023-05-20T10:53:54;95862.56;;;14.45;69.69
79285;BME280;68734;50.452;11.636;2023-05-20T10:56:25;95865.81;;;14.52;69.50
79285;BME280;68734;50.452;11.636;2023-05-20T10:58:52;95863.41;;;14.45;69.63
79285;BME280;68734;50.452;11.636;2023-05-20T11:01:21;95847.31;;;14.54;69.02
79285;BME280;68734;50.452;11.636;2023-05-20T11:03:48;95855.34;;;14.85;69.89
79285;BME280;68734;50.452;11.636;2023-05-20T11:06:16;95852.41;;;14.76;68.42
79285;BME280;68734;50.452;11.636;2023-05-20T11:08:42;95847.47;;;14.83;68.13
79285;BME280;68734;50.452;11.636;2023-05-20T11:11:12;95850.13;;;14.99;68.37
79285;BME280;68734;50.452;11.636;2023-05-20T11:13:39;95844.81;;;14.73;68.50
79285;BME280;68734;50.452;11.636;2023-05-20T11:16:05;95831.75;;;14.75;68.42
79285;BME280;68734;50.452;11.636;2023-05-20T11:18:30;95832.28;;;14.77;68.61
79285;BME280;68734;50.452;11.636;2023-05-20T11:20:59;95827.22;;;15.05;68.26
79285;BME280;68734;50.452;11.636;2023-05-20T11:23:26;95820.63;;;15.16;67.60
79285;BME280;68734;50.452;11.636;2023-05-20T11:25:52;95822.28;;;15.12;68.51
79285;BME280;68734;50.452;11.636;2023-05-20T11:28:19;95830.81;;;15.00;68.76
79285;BME280;68734;50.452;11.636;2023-05-20T11:30:48;95821.78;;;15.05;68.75
79285;BME280;68734;50.452;11.636;2023-05-20T11:33:15;95817.47;;;14.99;68.21
79285;BME280;68734;50.452;11.636;2023-05-20T11:35:45;95813.16;;;14.92;69.11
79285;BME280;68734;50.452;11.636;2023-05-20T11:38:11;95814.28;;;14.86;69.15
79285;BME280;68734;50.452;11.636;2023-05-20T11:40:43;95814.16;;;15.07;69.56
79285;BME280;68734;50.452;11.636;2023-05-20T11:43:10;95808.00;;;15.30;69.04
79285;BME280;68734;50.452;11.636;2023-05-20T11:45:43;95819.84;;;15.45;68.12
79285;BME280;68734;50.452;11.636;2023-05-20T11:48:10;95812.00;;;15.78;67.16
79285;BME280;68734;50.452;11.636;2023-05-20T11:50:41;95795.69;;;15.72;66.81
79285;BME280;68734;50.452;11.636;2023-05-20T11:53:08;95799.03;;;16.18;66.09
79285;BME280;68734;50.452;11.636;2023-05-20T11:55:52;95806.34;;;16.22;65.98
79285;BME280;68734;50.452;11.636;2023-05-20T11:58:21;95821.16;;;15.87;66.36
79285;BME280;68734;50.452;11.636;2023-05-20T12:00:46;95814.41;;;15.45;67.94
79285;BME280;68734;50.452;11.636;2023-05-20T12:03:12;95797.38;;;15.34;68.62
79285;BME280;68734;50.452;11.636;2023-05-20T12:05:38;95788.78;;;15.16;69.23
79285;BME280;68734;50.452;11.636;2023-05-20T12:08:06;95796.34;;;14.85;70.99
79285;BME280;68734;50.452;11.636;2023-05-20T12:10:32;95786.16;;;14.62;71.38
79285;BME280;68734;50.452;11.636;2023-05-20T12:13:00;95787.25;;;14.61;71.68
79285;BME280;68734;50.452;11.636;2023-05-20T12:15:27;95810.84;;;14.75;71.32
79285;BME280;68734;50.452;11.636;2023-05-20T12:17:53;95808.84;;;14.86;71.44
79285;BME280;68734;50.452;11.636;2023-05-20T12:20:22;95799.81;;;14.96;71.15
79285;BME280;68734;50.452;11.636;2023-05-20T12:22:48;95806.59;;;14.99;71.20
79285;BME280;68734;50.452;11.636;2023-05-20T12:25:15;95794.13;;;14.98;70.88
79285;BME280;68734;50.452;11.636;2023-05-20T12:27:42;95796.75;;;15.08;70.43
79285;BME280;68734;50.452;11.636;2023-05-20T12:30:08;95785.09;;;15.36;70.14
79285;BME280;68734;50.452;11.636;2023-05-20T12:32:36;95793.97;;;15.82;68.94
79285;BME280;68734;50.452;11.636;2023-05-20T12:35:06;95776.91;;;16.00;67.88
79285;BME280;68734;50.452;11.636;2023-05-20T12:37:31;95789.38;;;15.77;68.19
79285;BME280;68734;50.452;11.636;2023-05-20T12:39:58;95784.66;;;15.88;68.51
79285;BME280;68734;50.452;11.636;2023-05-20T12:42:23;95787.78;;;16.00;68.29
79285;BME280;68734;50.452;11.636;2023-05-20T12:44:48;95778.97;;;16.08;67.98
79285;BME280;68734;50.452;11.636;2023-05-20T12:47:16;95783.94;;;16.01;68.01
79285;BME280;68734;50.452;11.636;2023-05-20T12:49:44;95780.38;;;16.06;68.60
79285;BME280;68734;50.452;11.636;2023-05-20T12:52:09;95799.50;;;16.01;68.41
79285;BME280;68734;50.452;11.636;2023-05-20T12:54:37;95795.88;;;16.05;68.24
79285;BME280;68734;50.452;11.636;2023-05-20T12:57:03;95797.41;;;16.17;68.29
79285;BME280;68734;50.452;11.636;2023-05-20T12:59:31;95788.94;;;16.42;67.50
79285;BME280;68734;50.452;11.636;2023-05-20T13:01:57;95777.00;;;16.57;67.40
79285;BME280;68734;50.452;11.636;2023-05-20T13:04:22;95777.00;;;16.38;67.38
79285;BME280;68734;50.452;11.636;2023-05-20T13:06:48;95779.63;;;16.43;67.56
79285;BME280;68734;50.452;11.636;2023-05-20T13:09:14;95768.97;;;16.47;67.04